»·PEaware :: UPS185 KRNO-KLAS

UPS185 :: KRNO-KLAS

FLIGHT INFORMATION

Flight Status: Arrived
Operator:
United Parcel Service
More flights by this operator :: More flights under this callsign
Pilot: Chandler S. (807)
Aircraft: AIRBUS A300B4-600
(A306)
More flights by this aircraft type
Origin: KRNO Reno/Tahoe Intl
United States
Destination: KLAS McCarran Intl
United States
More flights between these airports :: More routes between these airports
Route: ZEFFR6 PESKE LIDAT J92 BTY SUNST4
File this flight plan on PilotEdge
Remarks:
Altitude:
(Current/Filed)
31,000ft
Speed:
(Current/Filed)
400kts
Departed: 10-Aug-20 01:07 PM
Arrived: 10-Aug-20 02:07 PM
Distance/Time
Traveled:
301nm/0:59
Distance/Time
To Go:
Arrived

Flight Plot

Page will automatically refresh every two minutes.

Flight plan parsing failed; only flown route is shown


Map Options




Map Legend


Flown Route
Filed Route
Departure Airport
Arrival Airport
Navaid (VOR, NDB)
Fix

Horizontal Profiles

Position Reports

Time Latitude Longitude Heading Altitude Ground
Speed
10-Aug-20 12:41 39.510757 -119.772335 270 4428ft 0kts
10-Aug-20 12:42 39.510757 -119.772335 270 4428ft 0kts
10-Aug-20 12:43 39.510757 -119.772335 270 4428ft 0kts
10-Aug-20 12:44 39.510757 -119.772335 270 4428ft 0kts
10-Aug-20 12:45 39.510757 -119.772335 270 4428ft 0kts
10-Aug-20 12:46 39.510757 -119.772335 270 4428ft 0kts
10-Aug-20 12:47 39.510757 -119.772335 270 4428ft 0kts
10-Aug-20 12:48 39.510757 -119.772335 270 4428ft 0kts
10-Aug-20 12:49 39.510757 -119.772335 270 4428ft 0kts
10-Aug-20 12:50 39.510757 -119.772335 270 4428ft 0kts
10-Aug-20 12:51 39.510757 -119.772335 270 4428ft 0kts
10-Aug-20 12:52 39.510757 -119.772334 270 4428ft 0kts
10-Aug-20 12:53 39.510757 -119.772334 270 4428ft 0kts
10-Aug-20 12:54 39.510757 -119.772334 270 4428ft 0kts
10-Aug-20 12:55 39.510757 -119.772334 270 4428ft 0kts
10-Aug-20 12:56 39.510757 -119.772334 270 4428ft 0kts
10-Aug-20 12:57 39.510705 -119.771874 298 4428ft 2kts
10-Aug-20 12:58 39.510244 -119.771482 359 4428ft 0kts
10-Aug-20 12:59 39.510212 -119.771482 0 4428ft 0kts
10-Aug-20 13:00 39.510212 -119.771482 0 4428ft 0kts
10-Aug-20 13:01 39.510212 -119.771482 1 4428ft 0kts
10-Aug-20 13:02 39.510212 -119.771482 1 4428ft 0kts
10-Aug-20 13:03 39.511344 -119.771458 0 4428ft 16kts
10-Aug-20 13:04 39.513729 -119.768976 89 4428ft 7kts
10-Aug-20 13:05 39.513734 -119.767915 90 4428ft 0kts
10-Aug-20 13:06 39.508012 -119.766746 179 4428ft 105kts
10-Aug-20 13:07 39.461404 -119.766316 184 6582ft 203kts
10-Aug-20 13:08 39.403463 -119.770155 181 9299ft 212kts
10-Aug-20 13:09 39.336734 -119.758710 160 11887ft 265kts
10-Aug-20 13:10 39.275335 -119.702304 134 14509ft 285kts
10-Aug-20 13:11 39.220782 -119.625074 133 17123ft 298kts
10-Aug-20 13:12 39.163581 -119.543149 132 19064ft 333kts
10-Aug-20 13:13 39.093286 -119.453469 137 21079ft 364kts
10-Aug-20 13:14 39.019971 -119.362960 137 23894ft 362kts
10-Aug-20 13:15 38.948707 -119.274847 137 26664ft 358kts
10-Aug-20 13:16 38.875000 -119.183860 137 29552ft 389kts
10-Aug-20 13:17 38.790128 -119.079311 137 31010ft 461kts
10-Aug-20 13:18 38.699400 -118.958857 135 30995ft 471kts
10-Aug-20 13:19 38.609233 -118.836097 135 30994ft 477kts
10-Aug-20 13:20 38.517759 -118.711867 135 30994ft 480kts
10-Aug-20 13:21 38.427067 -118.589158 135 30995ft 480kts
10-Aug-20 13:22 38.334659 -118.464705 135 30995ft 479kts
10-Aug-20 13:23 38.242910 -118.341721 136 30994ft 480kts
10-Aug-20 13:24 38.150997 -118.219050 136 30987ft 479kts
10-Aug-20 13:25 38.058844 -118.096577 136 30987ft 479kts
10-Aug-20 13:26 37.966757 -117.974694 136 31111ft 481kts
10-Aug-20 13:27 37.874137 -117.852586 136 31112ft 481kts
10-Aug-20 13:28 37.781598 -117.731076 136 31150ft 481kts
10-Aug-20 13:29 37.688604 -117.609449 136 31201ft 481kts
10-Aug-20 13:30 37.601432 -117.495867 136 31215ft 481kts
10-Aug-20 13:31 37.508299 -117.374974 136 31208ft 481kts
10-Aug-20 13:32 37.413498 -117.255313 146 31191ft 476kts
10-Aug-20 13:33 37.301878 -117.166847 149 31207ft 476kts
10-Aug-20 13:34 37.191879 -117.074580 149 31207ft 476kts
10-Aug-20 13:35 37.081867 -116.981928 149 31206ft 475kts
10-Aug-20 13:36 36.973053 -116.890399 151 31203ft 468kts
10-Aug-20 13:37 36.866202 -116.800791 151 31138ft 467kts
10-Aug-20 13:38 36.767939 -116.695265 138 29768ft 464kts
10-Aug-20 13:39 36.683365 -116.578191 136 27886ft 445kts
10-Aug-20 13:40 36.603286 -116.464807 135 25869ft 434kts
10-Aug-20 13:41 36.525006 -116.353906 133 23585ft 419kts
10-Aug-20 13:42 36.451429 -116.249990 133 20941ft 372kts
10-Aug-20 13:43 36.382112 -116.153065 132 18419ft 376kts
10-Aug-20 13:44 36.314088 -116.057743 131 17145ft 356kts
10-Aug-20 13:45 36.251142 -115.969619 131 16125ft 327kts
10-Aug-20 13:46 36.198005 -115.884023 114 16042ft 305kts
10-Aug-20 13:47 36.164273 -115.783877 112 15550ft 320kts
10-Aug-20 13:48 36.131342 -115.682312 111 14036ft 315kts
10-Aug-20 13:49 36.099345 -115.583621 111 12761ft 304kts
10-Aug-20 13:50 36.068189 -115.487739 111 11537ft 294kts
10-Aug-20 13:51 36.038910 -115.397634 111 11006ft 269kts
10-Aug-20 13:52 36.025371 -115.303679 96 10284ft 277kts
10-Aug-20 13:53 36.015817 -115.208412 96 9036ft 273kts
10-Aug-20 13:54 36.006805 -115.119440 97 8264ft 256kts
10-Aug-20 13:55 35.998411 -115.036621 98 8002ft 235kts
10-Aug-20 13:56 35.990049 -114.954308 99 7981ft 241kts
10-Aug-20 13:57 35.981589 -114.870589 99 7050ft 243kts
10-Aug-20 13:58 35.990440 -114.790539 93 5572ft 237kts
10-Aug-20 13:59 36.030438 -114.749710 333 5001ft 231kts
10-Aug-20 14:00 36.062063 -114.810068 296 4979ft 209kts
10-Aug-20 14:01 36.076337 -114.875023 263 4979ft 194kts
10-Aug-20 14:02 36.075209 -114.941358 266 4975ft 192kts
10-Aug-20 14:03 36.074722 -115.006228 265 4297ft 190kts
10-Aug-20 14:04 36.073655 -115.072923 268 3283ft 199kts
10-Aug-20 14:06 36.073710 -115.130414 269 2204ft 148kts
10-Aug-20 14:07 36.074635 -115.150193 297 2194ft 11kts
10-Aug-20 14:08 36.076503 -115.152118 333 2194ft 16kts
10-Aug-20 14:09 36.078094 -115.150111 98 2194ft 15kts
10-Aug-20 14:10 36.077548 -115.142342 94 2194ft 22kts
10-Aug-20 14:11 36.077521 -115.135218 89 2194ft 18kts
10-Aug-20 14:12 36.077578 -115.127308 88 2194ft 22kts
10-Aug-20 14:13 36.081134 -115.126274 37 2194ft 9kts
10-Aug-20 14:14 36.081243 -115.125503 89 2194ft 0kts
10-Aug-20 14:15 36.081243 -115.125503 89 2194ft 0kts
10-Aug-20 14:16 36.081243 -115.125503 89 2194ft 0kts
10-Aug-20 14:17 36.081243 -115.125503 89 2194ft 0kts

Navigation Log

Ident Type
Flight plan parsing failed, navigation log unavailable